Flight Track Log - Related Links

Times and Time Zones

All times are in EDT time to prevent confusion due to time zone crossing. See the D-AIGN flight status page for this flight to view local times or setup timezone preferences in your user account.

Time Position Orientation Groundspeed Altitude Reporting Facility
EDT Latitude Longitude Course Direction KTS MPH feet Rate Location/Type
Thu 04:14:58 PM 49.8920 8.5330 179° South 240 276 2,400  Level FlightAware ADS-B
Thu 04:15:53 PM 49.8240 8.5380 177° South 276 318 3,900 1,875 Climbing FlightAware ADS-B
Thu 04:16:18 PM 49.7900 8.5400 178° South 271 312 4,900 2,400 Climbing FlightAware ADS-B
Thu 04:16:48 PM 49.7520 8.5380 182° South 278 320 6,100 2,600 Climbing FlightAware ADS-B
Thu 04:17:18 PM 49.7130 8.5320 186° South 261 300 7,500 2,400 Climbing FlightAware ADS-B
Thu 04:17:43 PM 49.6820 8.5270 186° South 273 314 8,300 2,182 Climbing FlightAware ADS-B
Thu 04:18:13 PM 49.6440 8.5230 184° South 272 313 9,500 1,800 Climbing FlightAware ADS-B
Thu 04:18:53 PM 49.5940 8.5190 183° South 289 333 10,400 1,050 Climbing FlightAware ADS-B
Thu 04:19:33 PM 49.5360 8.5180 181° South 325 374 10,900 975 Climbing FlightAware ADS-B
Thu 04:20:13 PM 49.4760 8.5150 182° South 336 387 11,700 1,575 Climbing FlightAware ADS-B
Thu 04:20:53 PM 49.4070 8.5120 182° South 353 406 13,000 1,733 Climbing FlightAware ADS-B
Thu 04:21:43 PM 49.3290 8.5080 182° South 353 406 14,300 1,624 Climbing FlightAware ADS-B
Thu 04:22:18 PM 49.2640 8.5060 181° South 371 427 15,300 1,636 Climbing FlightAware ADS-B
Thu 04:22:38 PM 49.2350 8.5110 174° South 375 432 15,800 1,569 Climbing FlightAware ADS-B
Thu 04:23:23 PM 49.1580 8.5560 159° South 397 457 17,000 1,624 Climbing FlightAware ADS-B
Thu 04:24:03 PM 49.0860 8.5980 159° South 396 456 18,100 1,694 Climbing FlightAware ADS-B
Thu 04:24:48 PM 49.0070 8.6440 159° South 401 461 19,400 1,553 Climbing FlightAware ADS-B
Thu 04:25:28 PM 48.9330 8.6870 159° South 415 478 20,300 1,350 Climbing FlightAware ADS-B
Thu 04:26:08 PM 48.8620 8.7290 159° South 416 479 21,200 1,200 Climbing FlightAware ADS-B
Thu 04:26:53 PM 48.7780 8.7770 159° South 431 496 22,000 1,059 Climbing FlightAware ADS-B
Thu 04:27:33 PM 48.7030 8.8210 159° South 431 496 22,700 1,350 Climbing FlightAware ADS-B
Thu 04:28:13 PM 48.6270 8.8650 159° South 429 494 23,800 1,200 Climbing FlightAware ADS-B
Thu 04:28:58 PM 48.5420 8.9130 159° South 443 510 24,400 847 Climbing FlightAware ADS-B
Thu 04:29:38 PM 48.4650 8.9570 159° South 450 518 25,000 825 Climbing FlightAware ADS-B
Thu 04:30:18 PM 48.3880 9.0010 159° South 447 514 25,500 918 Climbing FlightAware ADS-B
Thu 04:31:03 PM 48.2990 9.0520 159° South 450 518 26,300 988 Climbing FlightAware ADS-B
Thu 04:31:43 PM 48.2190 9.0970 159° South 460 529 26,900 1,059 Climbing FlightAware ADS-B
Thu 04:32:28 PM 48.1270 9.1490 159° South 452 520 27,800 1,059 Climbing FlightAware ADS-B
Thu 04:33:08 PM 48.0470 9.1930 160° South 460 529 28,400 776 Climbing FlightAware ADS-B
Thu 04:33:53 PM 47.9560 9.2440 159° South 466 536 28,900 635 Climbing FlightAware ADS-B
Thu 04:34:33 PM 47.8910 9.2810 159° South 461 531 29,300 825 Climbing FlightAware ADS-B
Thu 04:35:13 PM 47.8060 9.3270 160° South 462 532 30,000 975 Climbing FlightAware ADS-B
Thu 04:35:53 PM 47.7250 9.3730 159° South 461 531 30,600 988 Climbing FlightAware ADS-B
Thu 04:36:38 PM 47.6260 9.4270 160° South 465 535 31,400 933 Climbing FlightAware ADS-B
Thu 04:37:23 PM 47.5370 9.4760 160° South 463 533 32,000 776 Climbing FlightAware ADS-B
Thu 04:38:03 PM 47.4580 9.5190 160° South 463 533 32,500 706 Climbing FlightAware ADS-B
Thu 04:38:48 PM 47.3690 9.5680 160° South 462 532 33,000 353 Climbing FlightAware ADS-B
Thu 04:39:28 PM 47.2860 9.6120 160° South 464 534 33,000  Level FlightAware ADS-B
Thu 04:40:03 PM 47.2190 9.6490 159° South 476 548 33,000  Level FlightAware ADS-B
Thu 04:40:48 PM 47.1210 9.7020 160° South 467 537 33,000  Level FlightAware ADS-B
Thu 04:41:33 PM 47.0260 9.7530 160° South 474 545 33,000  Level FlightAware ADS-B
Thu 04:42:13 PM 46.9410 9.7980 160° South 472 543 33,000  Level FlightAware ADS-B
Thu 04:42:58 PM 46.8510 9.8460 160° South 462 532 33,000  Level FlightAware ADS-B
Thu 04:43:33 PM 46.7820 9.8830 160° South 462 532 33,000  Level FlightAware ADS-B
Thu 04:44:23 PM 46.6750 9.9390 160° South 470 541 33,000  Level FlightAware ADS-B
Thu 04:45:03 PM 46.5930 9.9830 160° South 470 541 33,000  Level FlightAware ADS-B
Thu 04:45:43 PM 46.5120 10.0260 160° South 470 541 33,000  Level FlightAware ADS-B
Thu 04:46:28 PM 46.4210 10.0820 157° South 473 544 33,000  Level FlightAware ADS-B
Thu 04:47:08 PM 46.3410 10.1410 153° Southeast 475 547 33,000  Level FlightAware ADS-B
Thu 04:47:48 PM 46.2630 10.1960 154° Southeast 477 549 33,000  Level FlightAware ADS-B
Thu 04:48:33 PM 46.1760 10.2580 154° Southeast 478 550 33,000  Level FlightAware ADS-B
Thu 04:49:13 PM 46.0960 10.3140 154° Southeast 477 549 33,000  Level FlightAware ADS-B
Thu 04:49:53 PM 46.0160 10.3710 154° Southeast 477 549 33,000  Level FlightAware ADS-B
Thu 04:50:38 PM 45.9260 10.4340 154° Southeast 477 549 33,000  Level FlightAware ADS-B
Thu 04:51:18 PM 45.8460 10.4900 154° Southeast 478 550 33,000  Level FlightAware ADS-B
Thu 04:52:03 PM 45.7580 10.5510 154° Southeast 479 551 33,000  Level FlightAware ADS-B
Thu 04:52:43 PM 45.6780 10.6070 154° Southeast 479 551 33,000  Level FlightAware ADS-B
Thu 04:53:23 PM 45.5980 10.6600 155° Southeast 478 550 33,000  Level FlightAware ADS-B
Thu 04:54:08 PM 45.5070 10.7140 157° South 485 558 33,000  Level FlightAware ADS-B
Thu 04:54:48 PM 45.4220 10.7650 157° South 486 559 33,000  Level FlightAware ADS-B
Thu 04:55:33 PM 45.3320 10.8190 157° South 487 560 33,000  Level FlightAware ADS-B
Thu 04:56:13 PM 45.2480 10.8690 157° South 488 562 33,000  Level FlightAware ADS-B
Thu 04:56:53 PM 45.1620 10.9030 164° South 487 560 33,000  Level FlightAware ADS-B
Thu 04:57:38 PM 45.0620 10.9400 165° South 487 560 33,000  Level FlightAware ADS-B
Thu 04:58:18 PM 44.9740 10.9730 165° South 488 562 33,000  Level FlightAware ADS-B
Thu 04:59:03 PM 44.8750 11.0090 166° South 490 564 33,000  Level FlightAware ADS-B
Thu 04:59:43 PM 44.7950 11.0390 165° South 491 565 33,000  Level FlightAware ADS-B
Thu 05:00:28 PM 44.6920 11.0770 165° South 493 567 33,000  Level FlightAware ADS-B
Thu 05:01:08 PM 44.6020 11.1100 165° South 494 568 33,000  Level FlightAware ADS-B
Thu 05:01:48 PM 44.5130 11.1430 165° South 493 567 33,000  Level FlightAware ADS-B
Thu 05:02:33 PM 44.4150 11.1790 165° South 493 567 33,000  Level FlightAware ADS-B
Thu 05:03:13 PM 44.3260 11.2120 165° South 492 566 33,000  Level FlightAware ADS-B
Thu 05:03:53 PM 44.2380 11.2440 165° South 493 567 33,000  Level FlightAware ADS-B
Thu 05:04:38 PM 44.1370 11.2810 165° South 492 566 33,000  Level FlightAware ADS-B
Thu 05:05:18 PM 44.0480 11.3110 166° South 493 567 33,000  Level FlightAware ADS-B
Thu 05:06:03 PM 43.9480 11.3320 171° South 492 566 33,000  Level FlightAware ADS-B
Thu 05:06:43 PM 43.8580 11.3520 171° South 488 562 33,000  Level FlightAware ADS-B
Thu 05:07:28 PM 43.7600 11.3750 170° South 488 562 33,000  Level FlightAware ADS-B
Thu 05:08:08 PM 43.6730 11.3960 170° South 487 560 33,000  Level FlightAware ADS-B
Thu 05:08:48 PM 43.5790 11.4180 170° South 488 562 33,000  Level FlightAware ADS-B
Thu 05:09:33 PM 43.4790 11.4410 171° South 490 564 33,000  Level FlightAware ADS-B
Thu 05:10:13 PM 43.3910 11.4620 170° South 492 566 33,000  Level FlightAware ADS-B
Thu 05:10:58 PM 43.2900 11.4860 170° South 494 568 33,000  Level FlightAware ADS-B
Thu 05:11:38 PM 43.2000 11.5070 170° South 495 570 33,000  Level FlightAware ADS-B
Thu 05:12:18 PM 43.1080 11.5280 171° South 495 570 33,000  Level FlightAware ADS-B
Thu 05:13:03 PM 43.0090 11.5510 170° South 494 568 33,000  Level FlightAware ADS-B
Thu 05:13:43 PM 42.9200 11.5720 170° South 492 566 33,000  Level FlightAware ADS-B
Thu 05:14:23 PM 42.8260 11.5930 171° South 495 570 33,000  Level FlightAware ADS-B
Thu 05:15:08 PM 42.7270 11.6160 170° South 495 570 33,000  Level FlightAware ADS-B
Thu 05:15:48 PM 42.6350 11.6370 170° South 496 571 33,000  Level FlightAware ADS-B
Thu 05:16:33 PM 42.5340 11.6600 170° South 498 573 33,000  Level FlightAware ADS-B
Thu 05:17:18 PM 42.4300 11.6840 170° South 499 574 33,000  Level FlightAware ADS-B
Thu 05:17:58 PM 42.3390 11.7040 171° South 500 575 33,000  Level FlightAware ADS-B
Thu 05:18:38 PM 42.2500 11.7250 170° South 500 575 33,000  Level FlightAware ADS-B
Thu 05:19:23 PM 42.1500 11.7610 165° South 500 575 33,000  Level FlightAware ADS-B
Thu 05:20:03 PM 42.0620 11.8030 160° South 501 577 33,000  Level FlightAware ADS-B
Thu 05:20:58 PM 41.9470 11.8570 161° South 494 568 33,000  Level FlightAware ADS-B
Thu 05:21:43 PM 41.8480 11.9030 161° South 495 570 33,000  Level FlightAware ADS-B
Thu 05:22:23 PM 41.7590 11.9440 161° South 495 570 33,000  Level FlightAware ADS-B
Thu 05:23:08 PM 41.6610 11.9890 161° South 494 568 33,000  Level FlightAware ADS-B
Thu 05:23:48 PM 41.5720 12.0290 161° South 493 567 33,000  Level FlightAware ADS-B
Thu 05:24:28 PM 41.4830 12.0640 164° South 501 577 33,000  Level FlightAware ADS-B
Thu 05:25:13 PM 41.3830 12.1020 164° South 502 578 33,000  Level FlightAware ADS-B
Thu 05:25:43 PM 41.3170 12.1280 164° South 502 578 33,000  Level FlightAware ADS-B
Thu 05:26:38 PM 41.2130 12.1680 164° South 504 580 33,000  Level FlightAware ADS-B
Thu 05:27:18 PM 41.1150 12.1910 170° South 506 582 33,000  Level FlightAware ADS-B
Thu 05:28:13 PM 40.9980 12.2060 174° South 506 582 33,000  Level FlightAware ADS-B
Thu 05:28:53 PM 40.9090 12.2180 174° South 508 585 33,000  Level FlightAware ADS-B
Thu 05:29:33 PM 40.8060 12.2270 176° South 510 587 33,000  Level FlightAware ADS-B
Thu 05:30:18 PM 40.7080 12.2350 176° South 512 589 33,000  Level FlightAware ADS-B
Thu 05:30:58 PM 40.6040 12.2440 176° South 511 588 33,000  Level FlightAware ADS-B
Thu 05:31:43 PM 40.5030 12.2520 177° South 511 588 33,000  Level FlightAware ADS-B
Thu 05:32:28 PM 40.3980 12.2620 176° South 511 588 33,000  Level FlightAware ADS-B
Thu 05:33:08 PM 40.3010 12.2700 176° South 512 589 33,000  Level FlightAware ADS-B
Thu 05:33:48 PM 40.1980 12.2790 176° South 512 589 33,000  Level FlightAware ADS-B
Thu 05:34:28 PM 40.1020 12.2870 176° South 513 590 33,000  Level FlightAware ADS-B
Thu 05:35:03 PM 40.0340 12.2930 176° South 514 592 33,000  Level FlightAware ADS-B
Thu 05:36:08 PM 39.8720 12.3070 176° South 513 590 33,000  Level FlightAware ADS-B
Thu 05:36:48 PM 39.7730 12.3150 176° South 512 589 33,000  Level FlightAware ADS-B
Thu 05:37:28 PM 39.6790 12.3230 176° South 512 589 33,000  Level FlightAware ADS-B
Thu 05:38:08 PM 39.5830 12.3320 176° South 512 589 33,000  Level FlightAware ADS-B
Thu 05:38:53 PM 39.4590 12.3420 176° South 514 592 33,000  Level FlightAware ADS-B
Thu 05:39:38 PM 39.3510 12.3510 176° South 515 593 33,000  Level FlightAware ADS-B
Thu 05:40:23 PM 39.2470 12.3600 176° South 516 594 33,000  Level FlightAware ADS-B
Thu 05:41:03 PM 39.1560 12.3680 176° South 517 595 33,000  Level FlightAware ADS-B
Thu 05:41:38 PM 39.0650 12.3750 177° South 518 596 33,000  Level FlightAware ADS-B
Thu 05:42:28 PM 38.9520 12.3850 176° South 518 596 33,000  Level FlightAware ADS-B
Thu 05:43:08 PM 38.8530 12.3930 176° South 518 596 33,000  Level FlightAware ADS-B
Thu 05:43:48 PM 38.7510 12.4010 176° South 519 597 33,000  Level FlightAware ADS-B
Thu 05:44:33 PM 38.6520 12.4100 176° South 520 598 33,000  Level FlightAware ADS-B
Thu 05:45:13 PM 38.5490 12.4180 177° South 520 598 33,000  Level FlightAware ADS-B
Thu 05:45:53 PM 38.4560 12.4260 176° South 521 600 33,000  Level FlightAware ADS-B
Thu 05:46:38 PM 38.3450 12.4350 176° South 522 601 33,000  Level FlightAware ADS-B
Thu 05:47:23 PM 38.2370 12.4440 176° South 523 602 33,000  Level FlightAware ADS-B
Thu 05:48:03 PM 38.1440 12.4510 177° South 524 603 33,000  Level FlightAware ADS-B
Thu 05:48:43 PM 38.0490 12.4590 176° South 525 604 33,000  Level FlightAware ADS-B
Thu 05:49:28 PM 37.9350 12.4680 176° South 527 606 33,000  Level FlightAware ADS-B
Thu 05:50:08 PM 37.8370 12.4760 176° South 528 608 33,000  Level FlightAware ADS-B
Thu 05:50:53 PM 37.7310 12.4850 176° South 528 608 33,000  Level FlightAware ADS-B
Thu 05:51:33 PM 37.6310 12.4930 176° South 529 609 33,000  Level FlightAware ADS-B
Thu 05:52:13 PM 37.5300 12.5010 176° South 529 609 33,000  Level FlightAware ADS-B
Thu 05:52:58 PM 37.4190 12.5100 176° South 530 610 33,000  Level FlightAware ADS-B
Thu 05:53:38 PM 37.3220 12.5180 176° South 531 611 33,000  Level FlightAware ADS-B
Thu 05:54:23 PM 37.2110 12.5220 178° South 532 612 33,000  Level FlightAware ADS-B
Thu 05:55:03 PM 37.1130 12.5260 178° South 532 612 33,000  Level FlightAware ADS-B
Thu 05:55:48 PM 37.0080 12.5300 178° South 532 612 33,000  Level FlightAware ADS-B
Thu 05:56:28 PM 36.9040 12.5340 178° South 532 612 33,000  Level FlightAware ADS-B
Thu 05:57:08 PM 36.8070 12.5380 178° South 532 612 33,000  Level FlightAware ADS-B
Thu 05:57:53 PM 36.6970 12.5430 178° South 532 612 33,000  Level FlightAware ADS-B
Thu 05:58:33 PM 36.5970 12.5470 178° South 533 613 33,000  Level FlightAware ADS-B
Thu 05:59:18 PM 36.4860 12.5520 178° South 533 613 33,000  Level FlightAware ADS-B
Thu 05:59:58 PM 36.3880 12.5560 178° South 534 615 33,000  Level FlightAware ADS-B
Thu 06:00:38 PM 36.2880 12.5600 178° South 535 616 33,000  Level FlightAware ADS-B
Thu 06:01:23 PM 36.1750 12.5640 178° South 536 617 33,000  Level FlightAware ADS-B
Thu 06:02:03 PM 36.0760 12.5680 178° South 535 616 33,000  Level FlightAware ADS-B
Thu 06:02:43 PM 35.9780 12.5720 178° South 534 615 33,000  Level FlightAware ADS-B
Thu 06:03:28 PM 35.8660 12.5770 178° South 533 613 33,000  Level FlightAware ADS-B
Thu 06:04:08 PM 35.7670 12.5810 178° South 534 615 33,000  Level FlightAware ADS-B
Thu 06:04:53 PM 35.6570 12.5850 178° South 534 615 33,000  Level FlightAware ADS-B
Thu 06:05:33 PM 35.5570 12.5890 178° South 535 616 33,000  Level FlightAware ADS-B
Thu 06:06:18 PM 35.4490 12.5940 178° South 534 615 33,000  Level FlightAware ADS-B
Thu 06:06:58 PM 35.3470 12.5980 178° South 533 613 33,000  Level FlightAware ADS-B
Thu 06:07:38 PM 35.2490 12.6020 178° South 532 612 33,000  Level FlightAware ADS-B
Thu 06:08:23 PM 35.1400 12.6060 178° South 532 612 33,000  Level FlightAware ADS-B
Thu 06:09:03 PM 35.0400 12.6100 178° South 534 615 33,000  Level FlightAware ADS-B
Thu 06:09:43 PM 34.9420 12.6140 178° South 535 616 33,000  Level FlightAware ADS-B
Thu 06:10:28 PM 34.8280 12.6180 178° South 536 617 33,000  Level FlightAware ADS-B
Thu 06:11:08 PM 34.7290 12.6220 178° South 535 616 33,000  Level FlightAware ADS-B
Thu 06:11:53 PM 34.6240 12.6260 178° South 534 615 33,000  Level FlightAware ADS-B
Thu 06:12:33 PM 34.5200 12.6300 178° South 534 615 33,000  Level FlightAware ADS-B
Thu 06:13:13 PM 34.4220 12.6340 178° South 534 615 33,000  Level FlightAware ADS-B
Thu 06:13:53 PM 34.3220 12.6380 178° South 534 615 33,000  Level FlightAware ADS-B
Thu 06:14:38 PM 34.2070 12.6380 180° South 534 615 33,000  Level FlightAware ADS-B
Thu 06:15:23 PM 34.0970 12.6360 181° South 535 616 33,000  Level FlightAware ADS-B
Thu 06:16:03 PM 34.0040 12.6350 181° South 527 606 33,000  Level FlightAware ADS-B
Thu 06:16:38 PM 33.9220 12.6350 180° South 527 606 33,000  Level FlightAware ADS-B
Thu 06:17:38 PM 33.7700 12.6340 180° South 534 615 33,000  Level FlightAware ADS-B
Thu 06:18:18 PM 33.6700 12.6330 180° South 533 613 33,000  Level FlightAware ADS-B
Thu 06:19:03 PM 33.5570 12.6320 180° South 531 611 33,000  Level FlightAware ADS-B
Thu 06:19:43 PM 33.4550 12.6310 180° South 530 610 33,000  Level FlightAware ADS-B
Thu 06:20:28 PM 33.3440 12.6340 179° South 530 610 33,000  Level FlightAware ADS-B
Thu 06:21:13 PM 33.2360 12.6370 179° South 530 610 33,000  Level FlightAware ADS-B
Thu 06:22:03 PM 33.1230 12.6390 179° South 529 609 33,000  Level FlightAware ADS-B
Thu 06:22:43 PM 33.0400 12.6410 179° South 529 609 33,000  Level FlightAware ADS-B
Thu 06:25:00 PM 32.7502 12.6462 179° South  Level Estimated
Thu 06:26:00 PM 32.6232 12.6485 179° South  Level Estimated
Thu 06:27:00 PM 32.4963 12.6508 179° South  Level Estimated
Thu 06:28:00 PM 32.3694 12.6531 179° South  Level Estimated
Thu 06:29:00 PM 32.2425 12.6554 179° South  Level Estimated
Thu 06:30:00 PM 32.1155 12.6576 179° South  Level Estimated
Thu 06:31:00 PM 31.9886 12.6599 179° South  Level Estimated
Thu 06:32:00 PM 31.8617 12.6621 179° South  Level Estimated
Thu 06:33:00 PM 31.7347 12.6644 179° South  Level Estimated
Thu 06:34:00 PM 31.6078 12.6666 179° South  Level Estimated
Thu 06:35:00 PM 31.4809 12.6689 179° South  Level Estimated
Thu 06:36:00 PM 31.3539 12.6711 179° South  Level Estimated
Thu 06:37:00 PM 31.2270 12.6733 179° South  Level Estimated
Thu 06:38:00 PM 31.1001 12.6755 179° South  Level Estimated
Thu 06:39:00 PM 30.9732 12.6777 179° South  Level Estimated
Thu 06:40:00 PM 30.8462 12.6799 179° South  Level Estimated
Thu 06:41:00 PM 30.7193 12.6821 179° South  Level Estimated
Thu 06:42:00 PM 30.5924 12.6843 179° South  Level Estimated
Thu 06:43:00 PM 30.4654 12.6865 179° South  Level Estimated
Thu 06:44:00 PM 30.3385 12.6887 179° South  Level Estimated
Thu 06:45:00 PM 30.2116 12.6909 179° South  Level Estimated
Thu 06:46:00 PM 30.0846 12.6930 179° South  Level Estimated
Thu 06:47:00 PM 29.9577 12.6952 179° South  Level Estimated
Thu 06:48:00 PM 29.8308 12.6973 179° South  Level Estimated
Thu 06:49:00 PM 29.7038 12.6995 179° South  Level Estimated
Thu 06:50:00 PM 29.5769 12.7016 179° South  Level Estimated
Thu 06:51:00 PM 29.4500 12.7038 179° South  Level Estimated
Thu 06:52:00 PM 29.3231 12.7059 179° South  Level Estimated
Thu 06:53:00 PM 29.1961 12.7081 179° South  Level Estimated
Thu 06:54:00 PM 29.0692 12.7102 179° South  Level Estimated
Thu 06:55:00 PM 28.9423 12.7123 179° South  Level Estimated
Thu 06:56:00 PM 28.8153 12.7144 179° South  Level Estimated
Thu 06:57:00 PM 28.6884 12.7165 179° South  Level Estimated
Thu 06:58:00 PM 28.5615 12.7186 179° South  Level Estimated
Thu 06:59:00 PM 28.4345 12.7207 179° South  Level Estimated
Thu 07:00:00 PM 28.3076 12.7228 179° South  Level Estimated
Thu 07:01:00 PM 28.1807 12.7249 179° South  Level Estimated
Thu 07:02:00 PM 28.0538 12.7270 179° South  Level Estimated
Thu 07:03:00 PM 27.9268 12.7291 179° South  Level Estimated
Thu 07:04:00 PM 27.7999 12.7311 179° South  Level Estimated
Thu 07:05:00 PM 27.6730 12.7332 179° South  Level Estimated
Thu 07:06:00 PM 27.5460 12.7353 179° South  Level Estimated
Thu 07:07:00 PM 27.4191 12.7374 179° South  Level Estimated
Thu 07:08:00 PM 27.2922 12.7394 179° South  Level Estimated
Thu 07:09:00 PM 27.1653 12.7415 179° South  Level Estimated
Thu 07:10:00 PM 27.0383 12.7435 179° South  Level Estimated
Thu 07:11:00 PM 26.9114 12.7456 179° South  Level Estimated
Thu 07:12:00 PM 26.7845 12.7476 179° South  Level Estimated
Thu 07:13:00 PM 26.6575 12.7496 179° South  Level Estimated
Thu 07:14:00 PM 26.5306 12.7516 179° South  Level Estimated
Thu 07:15:00 PM 26.4037 12.7537 179° South  Level Estimated
Thu 07:16:00 PM 26.2767 12.7557 179° South  Level Estimated
Thu 07:17:00 PM 26.1498 12.7577 179° South  Level Estimated
Thu 07:18:00 PM 26.0229 12.7597 179° South  Level Estimated
Thu 07:19:00 PM 25.8960 12.7617 179° South  Level Estimated
Thu 07:20:00 PM 25.7690 12.7637 179° South  Level Estimated
Thu 07:21:00 PM 25.6421 12.7657 179° South  Level Estimated
Thu 07:22:00 PM 25.5152 12.7677 179° South  Level Estimated
Thu 07:23:00 PM 25.3882 12.7697 179° South  Level Estimated
Thu 07:24:00 PM 25.2613 12.7717 179° South  Level Estimated
Thu 07:25:00 PM 25.1343 12.7737 179° South  Level Estimated
Thu 07:26:00 PM 25.0074 12.7756 179° South  Level Estimated
Thu 07:27:00 PM 24.8804 12.7776 179° South  Level Estimated
Thu 07:28:00 PM 24.7535 12.7796 179° South  Level Estimated
Thu 07:29:00 PM 24.6266 12.7815 179° South  Level Estimated
Thu 07:30:00 PM 24.4996 12.7835 179° South  Level Estimated
Thu 07:31:00 PM 24.3727 12.7855 179° South  Level Estimated
Thu 07:32:00 PM 24.2458 12.7874 179° South  Level Estimated
Thu 07:33:00 PM 24.1188 12.7894 179° South  Level Estimated
Thu 07:34:00 PM 23.9919 12.7913 179° South  Level Estimated
Thu 07:35:00 PM 23.8649 12.7932 179° South  Level Estimated
Thu 07:36:00 PM 23.7380 12.7952 179° South  Level Estimated
Thu 07:37:00 PM 23.6110 12.7971 179° South  Level Estimated
Thu 07:38:00 PM 23.4841 12.7990 179° South  Level Estimated
Thu 07:39:00 PM 23.3572 12.8010 179° South  Level Estimated
Thu 07:40:00 PM 23.2302 12.8029 179° South  Level Estimated
Thu 07:41:00 PM 23.1033 12.8048 179° South  Level Estimated
Thu 07:42:00 PM 22.9764 12.8067 179° South  Level Estimated
Thu 07:43:00 PM 22.8494 12.8086 179° South  Level Estimated
Thu 07:44:00 PM 22.7225 12.8105 179° South  Level Estimated
Thu 07:45:00 PM 22.5955 12.8125 179° South  Level Estimated
Thu 07:46:00 PM 22.4686 12.8144 179° South  Level Estimated
Thu 07:47:00 PM 22.3417 12.8162 179° South  Level Estimated
Thu 07:48:00 PM 22.2147 12.8181 179° South  Level Estimated
Thu 07:49:00 PM 22.0878 12.8200 179° South  Level Estimated
Thu 07:50:00 PM 21.9608 12.8219 179° South  Level Estimated
Thu 07:51:00 PM 21.8339 12.8238 179° South  Level Estimated
Thu 07:52:00 PM 21.7069 12.8257 179° South  Level Estimated
Thu 07:53:00 PM 21.5800 12.8276 179° South  Level Estimated
Thu 07:54:00 PM 21.4531 12.8294 179° South  Level Estimated
Thu 07:55:00 PM 21.3261 12.8313 179° South  Level Estimated
Thu 07:56:00 PM 21.1992 12.8332 179° South  Level Estimated
Thu 07:57:00 PM 21.0723 12.8350 179° South  Level Estimated
Thu 07:58:00 PM 20.9453 12.8369 179° South  Level Estimated
Thu 07:59:00 PM 20.8184 12.8387 179° South  Level Estimated
Thu 08:00:00 PM 20.6914 12.8406 179° South  Level Estimated
Thu 08:01:00 PM 20.5645 12.8425 179° South  Level Estimated
Thu 08:02:00 PM 20.4375 12.8443 179° South  Level Estimated
Thu 08:03:00 PM 20.3106 12.8462 179° South  Level Estimated
Thu 08:04:00 PM 20.1837 12.8480 179° South  Level Estimated
Thu 08:05:00 PM 20.0567 12.8498 179° South  Level Estimated
Thu 08:06:00 PM 19.9298 12.8517 179° South  Level Estimated
Thu 08:07:00 PM 19.8029 12.8535 179° South  Level Estimated
Thu 08:08:00 PM 19.6759 12.8553 179° South  Level Estimated
Thu 08:09:00 PM 19.5490 12.8572 179° South  Level Estimated
Thu 08:10:00 PM 19.4220 12.8590 179° South  Level Estimated
Thu 08:11:00 PM 19.2951 12.8608 179° South  Level Estimated
Thu 08:12:00 PM 19.1681 12.8626 179° South  Level Estimated
Thu 08:13:00 PM 19.0412 12.8644 179° South  Level Estimated
Thu 08:14:00 PM 18.9143 12.8663 179° South  Level Estimated
Thu 08:15:00 PM 18.7873 12.8681 179° South  Level Estimated
Thu 08:16:00 PM 18.6604 12.8699 179° South  Level Estimated
Thu 08:17:00 PM 18.5334 12.8717 179° South  Level Estimated
Thu 08:18:00 PM 18.4065 12.8735 179° South  Level Estimated
Thu 08:19:00 PM 18.2796 12.8753 179° South  Level Estimated
Thu 08:20:00 PM 18.1526 12.8771 179° South  Level Estimated
Thu 08:21:00 PM 18.0257 12.8789 179° South  Level Estimated
Thu 08:22:00 PM 17.8988 12.8807 179° South  Level Estimated
Thu 08:23:00 PM 17.7718 12.8825 179° South  Level Estimated
Thu 08:24:00 PM 17.6449 12.8842 179° South  Level Estimated
Thu 08:25:00 PM 17.5179 12.8860 179° South  Level Estimated
Thu 08:26:00 PM 17.3910 12.8878 179° South  Level Estimated
Thu 08:27:00 PM 17.2640 12.8896 179° South  Level Estimated
Thu 08:28:00 PM 17.1371 12.8914 179° South  Level Estimated
Thu 08:29:00 PM 17.0102 12.8931 179° South  Level Estimated
Thu 08:30:00 PM 16.8832 12.8949 179° South  Level Estimated
Thu 08:31:00 PM 16.7563 12.8967 179° South  Level Estimated
Thu 08:32:00 PM 16.6294 12.8984 179° South  Level Estimated
Thu 08:33:00 PM 16.5024 12.9002 179° South  Level Estimated
Thu 08:34:00 PM 16.3755 12.9020 179° South  Level Estimated
Thu 08:35:00 PM 16.2485 12.9037 179° South  Level Estimated
Thu 08:36:00 PM 16.1216 12.9055 179° South  Level Estimated
Thu 08:37:00 PM 15.9946 12.9073 179° South  Level Estimated
Thu 08:38:00 PM 15.8677 12.9090 179° South  Level Estimated
Thu 08:39:00 PM 15.7408 12.9108 179° South  Level Estimated
Thu 08:40:00 PM 15.6138 12.9125 179° South  Level Estimated
Thu 08:41:00 PM 15.4869 12.9143 179° South  Level Estimated
Thu 08:42:00 PM 15.3600 12.9160 179° South  Level Estimated
Thu 08:43:00 PM 15.2330 12.9177 179° South  Level Estimated
Thu 08:44:00 PM 15.1061 12.9195 179° South  Level Estimated
Thu 08:45:00 PM 14.9791 12.9212 179° South  Level Estimated
Thu 08:46:00 PM 14.8522 12.9230 179° South  Level Estimated
Thu 08:47:00 PM 14.7253 12.9247 179° South  Level Estimated
Thu 08:48:00 PM 14.5983 12.9264 179° South  Level Estimated
Thu 08:49:00 PM 14.4714 12.9282 179° South  Level Estimated
Thu 08:50:00 PM 14.3444 12.9299 179° South  Level Estimated
Thu 08:51:00 PM 14.2175 12.9316 179° South  Level Estimated
Thu 08:52:00 PM 14.0906 12.9333 179° South  Level Estimated
Thu 08:53:00 PM 13.9636 12.9351 179° South  Level Estimated
Thu 08:54:00 PM 13.8367 12.9368 179° South  Level Estimated
Thu 08:55:00 PM 13.7097 12.9385 179° South  Level Estimated
Thu 08:56:00 PM 13.5828 12.9402 179° South  Level Estimated
Thu 08:57:00 PM 13.4558 12.9419 179° South  Level Estimated
Thu 08:58:00 PM 13.3289 12.9436 179° South  Level Estimated
Thu 08:59:00 PM 13.2020 12.9453 179° South  Level Estimated
Thu 09:00:00 PM 13.0750 12.9471 179° South  Level Estimated
Thu 09:01:00 PM 12.9481 12.9488 179° South  Level Estimated
Thu 09:02:00 PM 12.8211 12.9505 179° South  Level Estimated
Thu 09:03:00 PM 12.6942 12.9522 179° South  Level Estimated
Thu 09:04:00 PM 12.5673 12.9539 179° South  Level Estimated
Thu 09:05:00 PM 12.4403 12.9556 179° South  Level Estimated
Thu 09:06:00 PM 12.3134 12.9573 179° South  Level Estimated
Thu 09:07:00 PM 12.1865 12.9590 179° South  Level Estimated
Thu 09:08:00 PM 12.0595 12.9607 179° South  Level Estimated
Thu 09:09:00 PM 11.9326 12.9624 179° South  Level Estimated
Thu 09:10:00 PM 11.8056 12.9641 179° South  Level Estimated
Thu 09:11:00 PM 11.6787 12.9658 179° South  Level Estimated
Thu 09:12:00 PM 11.5518 12.9675 179° South  Level Estimated
Thu 09:13:00 PM 11.4248 12.9691 179° South  Level Estimated
Thu 09:14:00 PM 11.2979 12.9708 179° South  Level Estimated
Thu 09:15:00 PM 11.1709 12.9725 179° South  Level Estimated
Thu 09:16:00 PM 11.0440 12.9742 179° South  Level Estimated
Thu 09:17:00 PM 10.9171 12.9759 179° South  Level Estimated
Thu 09:18:00 PM 10.7901 12.9776 179° South  Level Estimated
Thu 09:19:00 PM 10.6632 12.9792 179° South  Level Estimated
Thu 09:20:00 PM 10.5362 12.9809 179° South  Level Estimated
Thu 09:21:00 PM 10.4093 12.9826 179° South  Level Estimated
Thu 09:22:00 PM 10.2823 12.9843 179° South  Level Estimated
Thu 09:23:00 PM 10.1554 12.9860 179° South  Level Estimated
Thu 09:24:00 PM 10.0285 12.9876 179° South  Level Estimated
Thu 09:25:00 PM 9.9015 12.9893 179° South  Level Estimated
Thu 09:26:00 PM 9.7746 12.9910 179° South  Level Estimated
Thu 09:27:00 PM 9.6476 12.9926 179° South  Level Estimated
Thu 09:28:00 PM 9.5207 12.9943 179° South  Level Estimated
Thu 09:29:00 PM 9.3938 12.9960 179° South  Level Estimated
Thu 09:30:00 PM 9.2668 12.9977 179° South  Level Estimated
Thu 09:31:00 PM 9.1399 12.9993 179° South  Level Estimated
Thu 09:32:00 PM 9.0129 13.0010 179° South  Level Estimated
Thu 09:33:00 PM 8.8860 13.0026 179° South  Level Estimated
Thu 09:34:00 PM 8.7591 13.0043 179° South  Level Estimated
Thu 09:35:00 PM 8.6321 13.0059 179° South  Level Estimated
Thu 09:36:00 PM 8.5052 13.0076 179° South  Level Estimated
Thu 09:37:00 PM 8.3783 13.0093 179° South  Level Estimated
Thu 09:38:00 PM 8.2513 13.0109 179° South  Level Estimated
Thu 09:39:00 PM 8.1244 13.0126 179° South  Level Estimated
Thu 09:40:00 PM 7.9974 13.0142 179° South  Level Estimated
Thu 09:41:00 PM 7.8705 13.0159 179° South  Level Estimated
Thu 09:42:00 PM 7.7435 13.0175 179° South  Level Estimated
Thu 09:43:00 PM 7.6166 13.0192 179° South  Level Estimated
Thu 09:44:00 PM 7.4897 13.0208 179° South  Level Estimated
Thu 09:45:00 PM 7.3627 13.0225 179° South  Level Estimated
Thu 09:46:00 PM 7.2358 13.0241 179° South  Level Estimated
Thu 09:47:00 PM 7.1089 13.0258 179° South  Level Estimated
Thu 09:48:00 PM 6.9819 13.0274 179° South  Level Estimated
Thu 09:49:00 PM 6.8550 13.0291 179° South  Level Estimated
Thu 09:50:00 PM 6.7280 13.0307 179° South  Level Estimated
Thu 09:51:00 PM 6.6011 13.0324 179° South  Level Estimated
Thu 09:52:00 PM 6.4742 13.0340 179° South  Level Estimated
Thu 09:53:00 PM 6.3472 13.0357 179° South  Level Estimated
Thu 09:54:00 PM 6.2203 13.0373 179° South  Level Estimated
Thu 09:55:00 PM 6.0933 13.0389 179° South  Level Estimated
Thu 09:56:00 PM 5.9664 13.0406 179° South  Level Estimated
Thu 09:57:00 PM 5.8394 13.0422 179° South  Level Estimated
Thu 09:58:00 PM 5.7125 13.0438 179° South  Level Estimated
Thu 09:59:00 PM 5.5856 13.0455 179° South  Level Estimated
Thu 10:00:00 PM 5.4586 13.0471 179° South  Level Estimated
Thu 10:01:00 PM 5.3317 13.0488 179° South  Level Estimated
Thu 10:02:00 PM 5.2048 13.0504 179° South  Level Estimated
Thu 10:03:00 PM 5.0778 13.0520 179° South  Level Estimated
Thu 10:04:00 PM 4.9509 13.0537 179° South  Level Estimated
Thu 10:05:00 PM 4.8239 13.0553 179° South  Level Estimated
Thu 10:06:00 PM 4.6970 13.0569 179° South  Level Estimated
Thu 10:07:00 PM 4.5700 13.0586 179° South  Level Estimated
Thu 10:08:00 PM 4.4431 13.0602 179° South  Level Estimated
Thu 10:09:00 PM 4.3162 13.0618 179° South  Level Estimated
Thu 10:10:00 PM 4.1892 13.0634 179° South  Level Estimated
Thu 10:11:00 PM 4.0623 13.0651 179° South  Level Estimated
Thu 10:12:00 PM 3.9353 13.0667 179° South  Level Estimated
Thu 10:13:00 PM 3.8084 13.0683 179° South  Level Estimated
Thu 10:14:00 PM 3.6815 13.0700 179° South  Level Estimated
Thu 10:15:00 PM 3.5545 13.0716 179° South  Level Estimated
Thu 10:16:00 PM 3.4276 13.0732 179° South  Level Estimated
Thu 10:17:00 PM 3.3006 13.0749 179° South  Level Estimated
Thu 10:18:00 PM 3.1737 13.0765 179° South  Level Estimated
Thu 10:19:00 PM 3.0468 13.0781 179° South  Level Estimated
Thu 10:20:00 PM 2.9198 13.0798 179° South  Level Estimated
Thu 10:21:00 PM 2.7929 13.0814 179° South  Level Estimated
Thu 10:22:00 PM 2.6660 13.0830 179° South  Level Estimated
Thu 10:23:00 PM 2.5390 13.0846 179° South  Level Estimated
Thu 10:24:00 PM 2.4121 13.0863 179° South  Level Estimated
Thu 10:25:00 PM 2.2851 13.0879 179° South  Level Estimated
Thu 10:26:00 PM 2.1582 13.0895 179° South  Level Estimated
Thu 10:27:00 PM 2.0312 13.0911 179° South  Level Estimated
Thu 10:28:00 PM 1.9043 13.0927 179° South  Level Estimated
Thu 10:29:00 PM 1.7774 13.0944 179° South  Level Estimated
Thu 10:30:00 PM 1.6504 13.0960 179° South  Level Estimated
Thu 10:31:00 PM 1.5235 13.0976 179° South  Level Estimated
Thu 10:32:00 PM 1.3966 13.0992 179° South  Level Estimated
Thu 10:33:00 PM 1.2696 13.1008 179° South  Level Estimated
Thu 10:34:00 PM 1.1427 13.1025 179° South  Level Estimated
Thu 10:35:00 PM 1.0157 13.1041 179° South  Level Estimated
Thu 10:36:00 PM 0.8888 13.1057 179° South  Level Estimated
Thu 10:37:00 PM 0.7618 13.1073 179° South  Level Estimated
Thu 10:38:00 PM 0.6349 13.1089 179° South  Level Estimated
Thu 10:39:00 PM 0.5080 13.1106 179° South  Level Estimated
Thu 10:40:00 PM 0.3810 13.1122 179° South  Level Estimated
Thu 10:41:00 PM 0.2541 13.1138 179° South  Level Estimated
Thu 10:42:00 PM 0.1271 13.1154 179° South  Level Estimated
Thu 10:43:00 PM 0.0002 13.1170 179° South  Level Estimated
Thu 10:44:00 PM -0.1267 13.1187 179° South  Level Estimated
Thu 10:45:00 PM -0.2537 13.1203 179° South  Level Estimated
Thu 10:46:00 PM -0.3806 13.1219 179° South  Level Estimated
Thu 10:47:00 PM -0.5076 13.1235 179° South  Level Estimated
Thu 10:48:00 PM -0.6345 13.1251 179° South  Level Estimated
Thu 10:49:00 PM -0.7614 13.1268 179° South  Level Estimated
Thu 10:50:00 PM -0.8884 13.1284 179° South  Level Estimated
Thu 10:51:00 PM -1.0153 13.1300 179° South  Level Estimated
Thu 10:52:00 PM -1.1422 13.1316 179° South  Level Estimated
Thu 10:53:00 PM -1.2692 13.1332 179° South  Level Estimated
Thu 10:54:00 PM -1.3961 13.1349 179° South  Level Estimated
Thu 10:55:00 PM -1.5231 13.1365 179° South  Level Estimated
Thu 10:56:00 PM -1.6500 13.1381 179° South  Level Estimated
Thu 10:57:00 PM -1.7770 13.1397 179° South  Level Estimated
Thu 10:58:00 PM -1.9039 13.1413 179° South  Level Estimated
Thu 10:59:00 PM -2.0308 13.1430 179° South  Level Estimated
Thu 11:00:00 PM -2.1578 13.1446 179° South  Level Estimated
Thu 11:01:00 PM -2.2847 13.1462 179° South  Level Estimated
Thu 11:02:00 PM -2.4116 13.1479 179° South  Level Estimated
Thu 11:03:00 PM -2.5386 13.1495 179° South  Level Estimated
Thu 11:04:00 PM -2.6655 13.1511 179° South  Level Estimated
Thu 11:05:00 PM -2.7925 13.1528 179° South  Level Estimated
Thu 11:06:00 PM -2.9194 13.1544 179° South  Level Estimated
Thu 11:07:00 PM -3.0464 13.1560 179° South  Level Estimated
Thu 11:08:00 PM -3.1733 13.1576 179° South  Level Estimated
Thu 11:09:00 PM -3.3002 13.1593 179° South  Level Estimated
Thu 11:10:00 PM -3.4272 13.1609 179° South  Level Estimated
Thu 11:11:00 PM -3.5541 13.1625 179° South  Level Estimated
Thu 11:12:00 PM -3.6811 13.1642 179° South  Level Estimated
Thu 11:13:00 PM -3.8080 13.1658 179° South  Level Estimated
Thu 11:14:00 PM -3.9349 13.1674 179° South  Level Estimated
Thu 11:15:00 PM -4.0619 13.1691 179° South  Level Estimated
Thu 11:16:00 PM -4.1888 13.1707 179° South  Level Estimated
Thu 11:17:00 PM -4.3158 13.1723 179° South  Level Estimated
Thu 11:18:00 PM -4.4427 13.1739 179° South  Level Estimated
Thu 11:19:00 PM -4.5696 13.1756 179° South  Level Estimated
Thu 11:20:00 PM -4.6966 13.1772 179° South  Level Estimated
Thu 11:21:00 PM -4.8235 13.1788 179° South  Level Estimated
Thu 11:22:00 PM -4.9504 13.1805 179° South  Level Estimated
Thu 11:23:00 PM -5.0774 13.1821 179° South  Level Estimated
Thu 11:24:00 PM -5.2043 13.1837 179° South  Level Estimated
Thu 11:25:00 PM -5.3313 13.1854 179° South  Level Estimated
Thu 11:26:00 PM -5.4582 13.1870 179° South  Level Estimated
Thu 11:27:00 PM -5.5851 13.1887 179° South  Level Estimated
Thu 11:28:00 PM -5.7121 13.1903 179° South  Level Estimated
Thu 11:29:00 PM -5.8390 13.1919 179° South  Level Estimated
Thu 11:30:00 PM -5.9660 13.1936 179° South  Level Estimated
Thu 11:31:00 PM -6.0929 13.1952 179° South  Level Estimated
Thu 11:32:00 PM -6.2199 13.1969 179° South  Level Estimated
Thu 11:33:00 PM -6.3468 13.1985 179° South  Level Estimated
Thu 11:34:00 PM -6.4737 13.2001 179° South  Level Estimated
Thu 11:35:00 PM -6.6007 13.2018 179° South  Level Estimated
Thu 11:36:00 PM -6.7276 13.2034 179° South  Level Estimated
Thu 11:37:00 PM -6.8545 13.2051 179° South  Level Estimated
Thu 11:38:00 PM -6.9815 13.2067 179° South  Level Estimated
Thu 11:39:00 PM -7.1084 13.2084 179° South  Level Estimated
Thu 11:40:00 PM -7.2354 13.2100 179° South  Level Estimated
Thu 11:41:00 PM -7.3623 13.2117 179° South  Level Estimated
Thu 11:42:00 PM -7.4893 13.2133 179° South  Level Estimated
Thu 11:43:00 PM -7.6162 13.2150 179° South  Level Estimated
Thu 11:44:00 PM -7.7431 13.2166 179° South  Level Estimated
Thu 11:45:00 PM -7.8701 13.2183 179° South  Level Estimated
Thu 11:46:00 PM -7.9970 13.2199 179° South  Level Estimated
Thu 11:47:00 PM -8.1240 13.2216 179° South  Level Estimated
Thu 11:48:00 PM -8.2509 13.2232 179° South  Level Estimated
Thu 11:49:00 PM -8.3778 13.2249 179° South  Level Estimated
Thu 11:50:00 PM -8.5048 13.2266 179° South  Level Estimated
Thu 11:51:00 PM -8.6317 13.2282 179° South  Level Estimated
Thu 11:52:00 PM -8.7586 13.2299 179° South  Level Estimated
Thu 11:53:00 PM -8.8584 13.2312 179° South  Level Estimated
Thu 11:54:00 PM -8.8584 13.2312 338° Northwest  Level Estimated
Thu 11:55:00 PM -8.8584 13.2312 338° Northwest  Level Estimated
Thu 11:56:00 PM -8.8584 13.2312 338° Northwest  Level Estimated
Thu 11:57:00 PM -8.8584 13.2312 338° Northwest  Level Estimated
Thu 11:58:00 PM -8.8584 13.2312 338° Northwest  Level Estimated
Thu 11:59:00 PM -8.8584 13.2312 338° Northwest  Level Estimated
Fri 12:00:00 AM -8.8584 13.2312 338° Northwest  Level Estimated
Fri 12:01:00 AM -8.8584 13.2312 338° Northwest  Level Estimated
Fri 12:02:00 AM -8.8584 13.2312 338° Northwest  Level Estimated
Fri 12:03:00 AM -8.8584 13.2312 338° Northwest  Level Estimated
Fri 12:04:00 AM -8.8584 13.2312 338° Northwest  Level Estimated
Fri 12:05:00 AM -8.8584 13.2312 338° Northwest  Level Estimated
Fri 12:06:00 AM -8.8584 13.2312 338° Northwest  Level Estimated
Fri 12:07:00 AM -8.8584 13.2312 338° Northwest  Level Estimated
Fri 12:08:00 AM -8.8584 13.2312 338° Northwest  Level Estimated
Fri 12:09:00 AM -8.8584 13.2312 338° Northwest  Level Estimated
Fri 12:10:00 AM -8.8584 13.2312 338° Northwest  Level Estimated
Fri 12:11:00 AM -8.8584 13.2312 338° Northwest  Level Estimated
Fri 12:12:00 AM -8.8584 13.2312 338° Northwest  Level Estimated
Fri 12:13:00 AM -8.8584 13.2312 338° Northwest  Level Estimated

Login

Don't have an account? Register now (free) for customized features, flight alerts, and more!